Nashville, Tennessee
Traffic Map
Current Weather Conditions
Nashville, Tennessee
Overcast Light Rain
Overcast
21°
Feels Like: 21°
Wind Chill: 21° Ceiling: 4700
Heat Index: 21° Visibility: 7mi
Dew Point: 21° Wind: 0mph
Humidity: 100% Direction: ° ()
Pressure: 29.94in Gusts: 0mph
Raw Report DataKBNA 021153Z 00000KT 7SM -RA SCT036 BKN047 OVC070 21/21 A2994 RMK AO2 RAB29 SLP134 P0005 60072 70206 T02110211 10222 20206 53010
Traffic Incident Summary
Active as of:
Severity:
Category:
InformationThere was an issue retrieving the traffic information for this location. Please try a different location or try again shortly.
Advertisements
Track Severe Weather on mobile